Terminal Aerodrome Forecast
Issued by NWS Melbourne, FL

Current Version | Previous Version | Text Only | Print | Product List | Glossary On
Versions: 1 2 3 4 5 6 7 8 9 10 11 12 13 14 15 16
000
FTUS42 KMLB 012207 AAB
TAFDAB
TAF AMD
KDAB 012207Z 0122/0218 22005KT 5SM -RA BR FEW012 BKN030 OVC080
      TEMPO 0122/0124 3SM RA BKN010 OVC020
     FM020000 20004KT P6SM FEW025 BKN150 BKN250
     FM021400 23014G21KT P6SM SCT030 BKN060=

USA.gov is the U.S. government's official web portal to all federal, state and local government web resources and services.